sensor_id;sensor_type;location;lat;lon;timestamp;P1;durP1;ratioP1;P2;durP2;ratioP2
56285;SDS011;42191;47.562;9.686;2023-06-24T00:02:28;35.88;;;33.53;;
56285;SDS011;42191;47.562;9.686;2023-06-24T00:04:54;35.25;;;32.95;;
56285;SDS011;42191;47.562;9.686;2023-06-24T00:07:25;37.25;;;34.70;;
56285;SDS011;42191;47.562;9.686;2023-06-24T00:09:51;38.50;;;36.00;;
56285;SDS011;42191;47.562;9.686;2023-06-24T00:12:17;34.85;;;32.55;;
56285;SDS011;42191;47.562;9.686;2023-06-24T00:14:44;36.58;;;34.17;;
56285;SDS011;42191;47.562;9.686;2023-06-24T00:17:15;35.75;;;33.40;;
56285;SDS011;42191;47.562;9.686;2023-06-24T00:19:44;36.72;;;34.33;;
56285;SDS011;42191;47.562;9.686;2023-06-24T00:22:10;36.85;;;34.35;;
56285;SDS011;42191;47.562;9.686;2023-06-24T00:24:36;35.85;;;33.55;;
56285;SDS011;42191;47.562;9.686;2023-06-24T00:27:02;37.10;;;34.75;;
56285;SDS011;42191;47.562;9.686;2023-06-24T00:29:28;34.70;;;32.42;;
56285;SDS011;42191;47.562;9.686;2023-06-24T00:31:54;33.50;;;31.30;;
56285;SDS011;42191;47.562;9.686;2023-06-24T00:34:20;35.30;;;33.00;;
56285;SDS011;42191;47.562;9.686;2023-06-24T00:36:48;35.47;;;33.15;;
56285;SDS011;42191;47.562;9.686;2023-06-24T00:39:15;34.45;;;32.25;;
56285;SDS011;42191;47.562;9.686;2023-06-24T00:41:41;36.00;;;33.65;;
56285;SDS011;42191;47.562;9.686;2023-06-24T00:44:08;34.35;;;31.95;;
56285;SDS011;42191;47.562;9.686;2023-06-24T00:46:34;37.15;;;34.72;;
56285;SDS011;42191;47.562;9.686;2023-06-24T00:49:01;34.63;;;32.35;;
56285;SDS011;42191;47.562;9.686;2023-06-24T00:51:27;36.40;;;33.90;;
56285;SDS011;42191;47.562;9.686;2023-06-24T00:53:58;36.70;;;34.30;;
56285;SDS011;42191;47.562;9.686;2023-06-24T00:56:26;34.22;;;31.95;;
56285;SDS011;42191;47.562;9.686;2023-06-24T00:58:57;36.58;;;34.08;;
56285;SDS011;42191;47.562;9.686;2023-06-24T01:01:26;35.60;;;33.30;;
56285;SDS011;42191;47.562;9.686;2023-06-24T01:03:56;34.65;;;32.28;;
56285;SDS011;42191;47.562;9.686;2023-06-24T01:06:23;35.80;;;33.42;;
56285;SDS011;42191;47.562;9.686;2023-06-24T01:08:57;35.05;;;32.78;;
56285;SDS011;42191;47.562;9.686;2023-06-24T01:11:25;36.13;;;33.83;;
56285;SDS011;42191;47.562;9.686;2023-06-24T01:13:51;35.67;;;33.30;;
56285;SDS011;42191;47.562;9.686;2023-06-24T01:24:44;36.40;;;33.80;;
56285;SDS011;42191;47.562;9.686;2023-06-24T01:27:40;37.20;;;34.80;;
56285;SDS011;42191;47.562;9.686;2023-06-24T01:33:22;36.40;;;34.05;;
56285;SDS011;42191;47.562;9.686;2023-06-24T01:35:55;37.88;;;35.38;;
56285;SDS011;42191;47.562;9.686;2023-06-24T01:38:25;35.70;;;33.30;;
56285;SDS011;42191;47.562;9.686;2023-06-24T01:40:57;35.25;;;32.92;;
56285;SDS011;42191;47.562;9.686;2023-06-24T01:43:25;36.72;;;34.30;;
56285;SDS011;42191;47.562;9.686;2023-06-24T01:45:52;35.83;;;33.50;;
56285;SDS011;42191;47.562;9.686;2023-06-24T01:48:28;36.25;;;33.85;;
56285;SDS011;42191;47.562;9.686;2023-06-24T01:50:58;35.55;;;33.05;;
56285;SDS011;42191;47.562;9.686;2023-06-24T01:53:30;35.63;;;33.22;;
56285;SDS011;42191;47.562;9.686;2023-06-24T01:56:01;36.50;;;34.20;;
56285;SDS011;42191;47.562;9.686;2023-06-24T01:58:30;35.15;;;32.95;;
56285;SDS011;42191;47.562;9.686;2023-06-24T02:01:00;37.33;;;34.88;;
56285;SDS011;42191;47.562;9.686;2023-06-24T02:03:27;36.40;;;33.88;;
56285;SDS011;42191;47.562;9.686;2023-06-24T02:05:55;36.40;;;34.10;;
56285;SDS011;42191;47.562;9.686;2023-06-24T02:08:23;35.85;;;33.55;;
56285;SDS011;42191;47.562;9.686;2023-06-24T02:10:50;36.17;;;33.88;;
56285;SDS011;42191;47.562;9.686;2023-06-24T02:13:17;35.78;;;33.47;;
56285;SDS011;42191;47.562;9.686;2023-06-24T02:15:45;36.05;;;33.72;;
56285;SDS011;42191;47.562;9.686;2023-06-24T02:18:12;36.15;;;33.83;;
56285;SDS011;42191;47.562;9.686;2023-06-24T02:20:40;36.17;;;33.88;;
56285;SDS011;42191;47.562;9.686;2023-06-24T02:23:09;35.25;;;32.95;;
56285;SDS011;42191;47.562;9.686;2023-06-24T02:25:36;34.45;;;32.25;;
56285;SDS011;42191;47.562;9.686;2023-06-24T02:28:06;37.30;;;34.70;;
56285;SDS011;42191;47.562;9.686;2023-06-24T02:30:34;36.83;;;34.42;;
56285;SDS011;42191;47.562;9.686;2023-06-24T02:33:01;35.85;;;33.42;;
56285;SDS011;42191;47.562;9.686;2023-06-24T02:35:27;36.33;;;33.92;;
56285;SDS011;42191;47.562;9.686;2023-06-24T02:37:53;35.63;;;32.90;;
56285;SDS011;42191;47.562;9.686;2023-06-24T02:40:20;36.15;;;33.83;;
56285;SDS011;42191;47.562;9.686;2023-06-24T02:42:46;36.30;;;33.90;;
56285;SDS011;42191;47.562;9.686;2023-06-24T02:45:12;35.97;;;33.67;;
56285;SDS011;42191;47.562;9.686;2023-06-24T02:47:40;34.58;;;32.08;;
56285;SDS011;42191;47.562;9.686;2023-06-24T02:50:08;34.50;;;32.28;;
56285;SDS011;42191;47.562;9.686;2023-06-24T02:52:35;35.35;;;32.95;;
56285;SDS011;42191;47.562;9.686;2023-06-24T02:55:02;37.20;;;34.80;;
56285;SDS011;42191;47.562;9.686;2023-06-24T02:57:29;35.75;;;33.45;;
56285;SDS011;42191;47.562;9.686;2023-06-24T02:59:57;35.97;;;33.60;;
56285;SDS011;42191;47.562;9.686;2023-06-24T03:02:23;36.28;;;33.92;;
56285;SDS011;42191;47.562;9.686;2023-06-24T03:04:50;36.80;;;34.40;;
56285;SDS011;42191;47.562;9.686;2023-06-24T03:07:17;36.22;;;33.92;;
56285;SDS011;42191;47.562;9.686;2023-06-24T03:09:46;33.45;;;31.33;;
56285;SDS011;42191;47.562;9.686;2023-06-24T03:12:13;36.33;;;34.00;;
56285;SDS011;42191;47.562;9.686;2023-06-24T03:14:39;36.63;;;34.30;;
56285;SDS011;42191;47.562;9.686;2023-06-24T03:17:05;36.53;;;34.20;;
56285;SDS011;42191;47.562;9.686;2023-06-24T03:19:31;34.65;;;32.35;;
56285;SDS011;42191;47.562;9.686;2023-06-24T03:21:57;35.25;;;32.95;;
56285;SDS011;42191;47.562;9.686;2023-06-24T03:24:23;35.53;;;33.22;;
56285;SDS011;42191;47.562;9.686;2023-06-24T03:26:49;35.67;;;33.30;;
56285;SDS011;42191;47.562;9.686;2023-06-24T03:29:21;35.33;;;32.97;;
56285;SDS011;42191;47.562;9.686;2023-06-24T03:31:47;38.13;;;35.53;;
56285;SDS011;42191;47.562;9.686;2023-06-24T03:34:15;36.20;;;33.85;;
56285;SDS011;42191;47.562;9.686;2023-06-24T03:36:44;36.58;;;34.28;;
56285;SDS011;42191;47.562;9.686;2023-06-24T03:39:10;35.10;;;32.80;;
56285;SDS011;42191;47.562;9.686;2023-06-24T03:41:36;37.33;;;34.92;;
56285;SDS011;42191;47.562;9.686;2023-06-24T03:44:04;35.70;;;33.30;;
56285;SDS011;42191;47.562;9.686;2023-06-24T03:46:30;35.65;;;33.25;;
56285;SDS011;42191;47.562;9.686;2023-06-24T03:48:58;36.95;;;34.55;;
56285;SDS011;42191;47.562;9.686;2023-06-24T03:51:25;36.90;;;34.50;;
56285;SDS011;42191;47.562;9.686;2023-06-24T03:53:51;35.50;;;33.10;;
56285;SDS011;42191;47.562;9.686;2023-06-24T03:56:17;36.63;;;34.25;;
56285;SDS011;42191;47.562;9.686;2023-06-24T03:58:43;36.15;;;33.65;;
56285;SDS011;42191;47.562;9.686;2023-06-24T04:01:09;36.33;;;33.95;;
56285;SDS011;42191;47.562;9.686;2023-06-24T04:03:36;35.53;;;33.17;;
56285;SDS011;42191;47.562;9.686;2023-06-24T04:06:02;36.53;;;34.13;;
56285;SDS011;42191;47.562;9.686;2023-06-24T04:08:28;37.08;;;34.65;;
56285;SDS011;42191;47.562;9.686;2023-06-24T04:10:57;37.40;;;35.00;;
56285;SDS011;42191;47.562;9.686;2023-06-24T04:13:28;35.00;;;32.70;;
56285;SDS011;42191;47.562;9.686;2023-06-24T04:15:55;34.65;;;32.35;;
56285;SDS011;42191;47.562;9.686;2023-06-24T04:18:21;35.63;;;33.33;;
56285;SDS011;42191;47.562;9.686;2023-06-24T04:20:47;35.03;;;32.83;;
56285;SDS011;42191;47.562;9.686;2023-06-24T04:23:13;35.85;;;33.65;;
56285;SDS011;42191;47.562;9.686;2023-06-24T04:25:40;35.83;;;33.25;;
56285;SDS011;42191;47.562;9.686;2023-06-24T04:28:07;35.25;;;32.95;;
56285;SDS011;42191;47.562;9.686;2023-06-24T04:30:33;36.97;;;34.63;;
56285;SDS011;42191;47.562;9.686;2023-06-24T04:33:03;32.90;;;30.73;;
56285;SDS011;42191;47.562;9.686;2023-06-24T04:35:30;36.45;;;34.00;;
56285;SDS011;42191;47.562;9.686;2023-06-24T04:37:56;34.78;;;32.53;;
56285;SDS011;42191;47.562;9.686;2023-06-24T04:40:22;34.75;;;32.25;;
56285;SDS011;42191;47.562;9.686;2023-06-24T04:42:48;36.40;;;34.10;;
56285;SDS011;42191;47.562;9.686;2023-06-24T04:45:15;35.33;;;33.05;;
56285;SDS011;42191;47.562;9.686;2023-06-24T04:47:41;35.00;;;32.72;;
56285;SDS011;42191;47.562;9.686;2023-06-24T04:50:07;36.47;;;33.97;;
56285;SDS011;42191;47.562;9.686;2023-06-24T04:52:34;34.97;;;32.78;;
56285;SDS011;42191;47.562;9.686;2023-06-24T04:55:01;36.05;;;33.65;;
56285;SDS011;42191;47.562;9.686;2023-06-24T04:57:28;35.30;;;33.00;;
56285;SDS011;42191;47.562;9.686;2023-06-24T04:59:56;33.45;;;31.13;;
56285;SDS011;42191;47.562;9.686;2023-06-24T05:02:22;36.80;;;34.30;;
56285;SDS011;42191;47.562;9.686;2023-06-24T05:04:49;34.55;;;32.17;;
56285;SDS011;42191;47.562;9.686;2023-06-24T05:07:16;34.22;;;32.03;;
56285;SDS011;42191;47.562;9.686;2023-06-24T05:09:43;36.25;;;33.95;;
56285;SDS011;42191;47.562;9.686;2023-06-24T05:12:11;34.42;;;32.13;;
56285;SDS011;42191;47.562;9.686;2023-06-24T05:14:37;35.70;;;33.38;;
56285;SDS011;42191;47.562;9.686;2023-06-24T05:17:03;34.10;;;31.90;;
56285;SDS011;42191;47.562;9.686;2023-06-24T05:19:29;35.60;;;32.95;;
56285;SDS011;42191;47.562;9.686;2023-06-24T05:21:56;34.10;;;31.80;;
56285;SDS011;42191;47.562;9.686;2023-06-24T05:24:22;36.33;;;33.75;;
56285;SDS011;42191;47.562;9.686;2023-06-24T05:26:49;34.28;;;31.98;;
56285;SDS011;42191;47.562;9.686;2023-06-24T05:29:16;34.53;;;32.30;;
56285;SDS011;42191;47.562;9.686;2023-06-24T05:31:43;33.55;;;31.35;;
56285;SDS011;42191;47.562;9.686;2023-06-24T05:34:09;35.58;;;33.00;;
56285;SDS011;42191;47.562;9.686;2023-06-24T05:36:35;35.30;;;32.97;;
56285;SDS011;42191;47.562;9.686;2023-06-24T05:39:01;35.65;;;33.30;;
56285;SDS011;42191;47.562;9.686;2023-06-24T05:41:27;33.72;;;31.52;;
56285;SDS011;42191;47.562;9.686;2023-06-24T05:44:03;34.63;;;32.42;;
56285;SDS011;42191;47.562;9.686;2023-06-24T05:46:32;34.72;;;32.42;;
56285;SDS011;42191;47.562;9.686;2023-06-24T05:48:58;35.25;;;32.95;;
56285;SDS011;42191;47.562;9.686;2023-06-24T05:51:24;36.42;;;34.03;;
56285;SDS011;42191;47.562;9.686;2023-06-24T05:53:51;35.97;;;33.67;;
56285;SDS011;42191;47.562;9.686;2023-06-24T05:56:17;35.88;;;33.50;;
56285;SDS011;42191;47.562;9.686;2023-06-24T05:58:44;35.20;;;32.88;;
56285;SDS011;42191;47.562;9.686;2023-06-24T06:01:10;37.25;;;34.78;;
56285;SDS011;42191;47.562;9.686;2023-06-24T06:03:36;36.03;;;33.53;;
56285;SDS011;42191;47.562;9.686;2023-06-24T06:06:03;34.08;;;31.77;;
56285;SDS011;42191;47.562;9.686;2023-06-24T06:08:29;37.40;;;34.97;;
56285;SDS011;42191;47.562;9.686;2023-06-24T06:10:55;35.13;;;32.83;;
56285;SDS011;42191;47.562;9.686;2023-06-24T06:13:21;36.70;;;34.30;;
56285;SDS011;42191;47.562;9.686;2023-06-24T06:15:47;35.35;;;32.97;;
56285;SDS011;42191;47.562;9.686;2023-06-24T06:18:13;35.10;;;32.70;;
56285;SDS011;42191;47.562;9.686;2023-06-24T06:20:39;35.13;;;32.72;;
56285;SDS011;42191;47.562;9.686;2023-06-24T06:23:05;35.58;;;32.85;;
56285;SDS011;42191;47.562;9.686;2023-06-24T06:25:32;35.45;;;33.10;;
56285;SDS011;42191;47.562;9.686;2023-06-24T06:27:58;34.00;;;31.80;;
56285;SDS011;42191;47.562;9.686;2023-06-24T06:30:24;34.75;;;32.35;;
56285;SDS011;42191;47.562;9.686;2023-06-24T06:32:50;34.20;;;31.90;;
56285;SDS011;42191;47.562;9.686;2023-06-24T06:35:16;34.78;;;32.40;;
56285;SDS011;42191;47.562;9.686;2023-06-24T06:37:42;33.40;;;31.23;;
56285;SDS011;42191;47.562;9.686;2023-06-24T06:40:09;33.22;;;31.02;;
56285;SDS011;42191;47.562;9.686;2023-06-24T06:42:36;34.35;;;32.05;;
56285;SDS011;42191;47.562;9.686;2023-06-24T06:45:02;35.05;;;32.55;;
56285;SDS011;42191;47.562;9.686;2023-06-24T06:47:28;34.88;;;32.58;;
56285;SDS011;42191;47.562;9.686;2023-06-24T06:49:54;35.13;;;32.83;;
56285;SDS011;42191;47.562;9.686;2023-06-24T06:52:20;32.92;;;30.73;;
56285;SDS011;42191;47.562;9.686;2023-06-24T06:54:46;32.75;;;30.48;;
56285;SDS011;42191;47.562;9.686;2023-06-24T06:57:12;35.70;;;33.30;;
56285;SDS011;42191;47.562;9.686;2023-06-24T06:59:39;33.75;;;31.45;;
56285;SDS011;42191;47.562;9.686;2023-06-24T07:02:05;35.30;;;32.92;;
56285;SDS011;42191;47.562;9.686;2023-06-24T07:04:31;34.05;;;31.85;;
56285;SDS011;42191;47.562;9.686;2023-06-24T07:06:57;34.65;;;32.25;;
56285;SDS011;42191;47.562;9.686;2023-06-24T07:09:23;34.42;;;32.13;;
56285;SDS011;42191;47.562;9.686;2023-06-24T07:11:49;34.25;;;31.95;;
56285;SDS011;42191;47.562;9.686;2023-06-24T07:14:15;33.97;;;31.77;;
56285;SDS011;42191;47.562;9.686;2023-06-24T07:16:42;34.78;;;32.30;;
56285;SDS011;42191;47.562;9.686;2023-06-24T07:19:08;36.30;;;33.88;;
56285;SDS011;42191;47.562;9.686;2023-06-24T07:21:34;35.72;;;33.35;;
56285;SDS011;42191;47.562;9.686;2023-06-24T07:24:00;34.92;;;32.65;;
56285;SDS011;42191;47.562;9.686;2023-06-24T07:26:26;34.72;;;32.53;;
56285;SDS011;42191;47.562;9.686;2023-06-24T07:28:53;33.63;;;31.38;;
56285;SDS011;42191;47.562;9.686;2023-06-24T07:31:21;34.67;;;32.28;;
56285;SDS011;42191;47.562;9.686;2023-06-24T07:33:47;34.55;;;32.35;;
56285;SDS011;42191;47.562;9.686;2023-06-24T07:36:13;33.33;;;31.02;;
56285;SDS011;42191;47.562;9.686;2023-06-24T07:38:39;32.88;;;30.73;;
56285;SDS011;42191;47.562;9.686;2023-06-24T07:41:05;32.13;;;30.13;;
56285;SDS011;42191;47.562;9.686;2023-06-24T07:43:31;33.88;;;31.60;;
56285;SDS011;42191;47.562;9.686;2023-06-24T07:45:57;31.98;;;29.73;;
56285;SDS011;42191;47.562;9.686;2023-06-24T07:48:23;33.95;;;31.80;;
56285;SDS011;42191;47.562;9.686;2023-06-24T07:50:50;33.22;;;31.13;;
56285;SDS011;42191;47.562;9.686;2023-06-24T07:53:16;33.78;;;31.58;;
56285;SDS011;42191;47.562;9.686;2023-06-24T07:55:42;34.55;;;32.25;;
56285;SDS011;42191;47.562;9.686;2023-06-24T07:58:08;33.25;;;31.05;;
56285;SDS011;42191;47.562;9.686;2023-06-24T08:00:34;32.17;;;30.08;;
56285;SDS011;42191;47.562;9.686;2023-06-24T08:03:00;33.85;;;31.65;;
56285;SDS011;42191;47.562;9.686;2023-06-24T08:05:27;32.80;;;30.70;;
56285;SDS011;42191;47.562;9.686;2023-06-24T08:07:53;31.92;;;29.92;;
56285;SDS011;42191;47.562;9.686;2023-06-24T08:10:20;33.50;;;31.42;;
56285;SDS011;42191;47.562;9.686;2023-06-24T08:12:46;34.67;;;32.47;;
56285;SDS011;42191;47.562;9.686;2023-06-24T08:15:12;33.30;;;31.20;;
56285;SDS011;42191;47.562;9.686;2023-06-24T08:17:38;31.83;;;29.83;;
56285;SDS011;42191;47.562;9.686;2023-06-24T08:20:05;33.67;;;31.48;;
56285;SDS011;42191;47.562;9.686;2023-06-24T08:22:31;35.17;;;32.53;;
56285;SDS011;42191;47.562;9.686;2023-06-24T08:24:58;30.63;;;28.65;;
56285;SDS011;42191;47.562;9.686;2023-06-24T08:27:24;32.90;;;30.80;;
56285;SDS011;42191;47.562;9.686;2023-06-24T08:29:50;33.10;;;31.00;;
56285;SDS011;42191;47.562;9.686;2023-06-24T08:32:16;35.08;;;32.88;;
56285;SDS011;42191;47.562;9.686;2023-06-24T08:34:42;33.95;;;31.65;;
56285;SDS011;42191;47.562;9.686;2023-06-24T08:37:08;34.55;;;32.30;;
56285;SDS011;42191;47.562;9.686;2023-06-24T08:39:34;31.83;;;29.70;;
56285;SDS011;42191;47.562;9.686;2023-06-24T08:42:02;35.63;;;33.15;;
56285;SDS011;42191;47.562;9.686;2023-06-24T08:44:28;34.45;;;32.05;;
56285;SDS011;42191;47.562;9.686;2023-06-24T08:46:54;35.25;;;32.95;;
56285;SDS011;42191;47.562;9.686;2023-06-24T08:52:04;33.35;;;31.15;;
56285;SDS011;42191;47.562;9.686;2023-06-24T08:54:35;34.58;;;32.03;;
56285;SDS011;42191;47.562;9.686;2023-06-24T08:57:03;32.70;;;30.52;;
56285;SDS011;42191;47.562;9.686;2023-06-24T08:59:36;33.65;;;31.35;;
56285;SDS011;42191;47.562;9.686;2023-06-24T09:02:03;32.42;;;30.30;;
56285;SDS011;42191;47.562;9.686;2023-06-24T09:04:29;33.55;;;31.35;;
56285;SDS011;42191;47.562;9.686;2023-06-24T09:06:56;33.03;;;30.88;;
56285;SDS011;42191;47.562;9.686;2023-06-24T09:09:23;33.42;;;31.23;;
56285;SDS011;42191;47.562;9.686;2023-06-24T09:14:19;34.03;;;31.83;;
56285;SDS011;42191;47.562;9.686;2023-06-24T09:16:58;32.92;;;30.75;;
56285;SDS011;42191;47.562;9.686;2023-06-24T09:22:04;33.53;;;31.42;;
56285;SDS011;42191;47.562;9.686;2023-06-24T09:24:32;32.08;;;29.98;;
56285;SDS011;42191;47.562;9.686;2023-06-24T09:26:58;32.67;;;30.58;;
56285;SDS011;42191;47.562;9.686;2023-06-24T09:29:25;33.53;;;31.33;;
56285;SDS011;42191;47.562;9.686;2023-06-24T09:31:53;32.88;;;30.77;;
56285;SDS011;42191;47.562;9.686;2023-06-24T09:34:21;32.83;;;30.73;;
56285;SDS011;42191;47.562;9.686;2023-06-24T09:36:54;31.90;;;29.83;;
56285;SDS011;42191;47.562;9.686;2023-06-24T09:39:21;30.13;;;27.92;;
56285;SDS011;42191;47.562;9.686;2023-06-24T09:41:53;30.80;;;28.83;;
56285;SDS011;42191;47.562;9.686;2023-06-24T09:44:20;28.48;;;26.75;;
56285;SDS011;42191;47.562;9.686;2023-06-24T09:46:46;30.42;;;28.38;;
56285;SDS011;42191;47.562;9.686;2023-06-24T09:49:13;31.13;;;29.08;;
56285;SDS011;42191;47.562;9.686;2023-06-24T09:51:40;28.75;;;26.95;;
56285;SDS011;42191;47.562;9.686;2023-06-24T09:54:10;29.10;;;27.30;;
56285;SDS011;42191;47.562;9.686;2023-06-24T09:56:39;32.40;;;30.40;;
56285;SDS011;42191;47.562;9.686;2023-06-24T09:59:11;30.45;;;28.45;;
56285;SDS011;42191;47.562;9.686;2023-06-24T10:01:38;31.25;;;29.20;;
56285;SDS011;42191;47.562;9.686;2023-06-24T10:04:06;30.38;;;28.48;;
56285;SDS011;42191;47.562;9.686;2023-06-24T10:06:33;31.33;;;29.42;;
56285;SDS011;42191;47.562;9.686;2023-06-24T10:09:02;30.55;;;28.65;;
56285;SDS011;42191;47.562;9.686;2023-06-24T10:11:29;31.98;;;29.88;;
56285;SDS011;42191;47.562;9.686;2023-06-24T10:13:56;30.27;;;28.38;;
56285;SDS011;42191;47.562;9.686;2023-06-24T10:16:22;28.85;;;27.05;;
56285;SDS011;42191;47.562;9.686;2023-06-24T10:18:48;30.70;;;28.70;;
56285;SDS011;42191;47.562;9.686;2023-06-24T10:21:15;30.85;;;28.95;;
56285;SDS011;42191;47.562;9.686;2023-06-24T10:26:24;31.05;;;29.15;;
56285;SDS011;42191;47.562;9.686;2023-06-24T10:36:58;30.25;;;28.35;;
56285;SDS011;42191;47.562;9.686;2023-06-24T10:39:34;31.63;;;29.63;;
56285;SDS011;42191;47.562;9.686;2023-06-24T10:44:58;30.10;;;28.20;;
56285;SDS011;42191;47.562;9.686;2023-06-24T10:47:33;31.55;;;29.55;;
56285;SDS011;42191;47.562;9.686;2023-06-24T10:50:04;31.30;;;29.38;;
56285;SDS011;42191;47.562;9.686;2023-06-24T10:52:32;30.42;;;28.52;;
56285;SDS011;42191;47.562;9.686;2023-06-24T10:55:02;28.55;;;26.75;;
56285;SDS011;42191;47.562;9.686;2023-06-24T10:57:28;29.63;;;27.60;;
56285;SDS011;42191;47.562;9.686;2023-06-24T10:59:56;28.08;;;26.08;;
56285;SDS011;42191;47.562;9.686;2023-06-24T11:02:23;29.65;;;27.75;;
56285;SDS011;42191;47.562;9.686;2023-06-24T11:04:50;30.77;;;28.77;;
56285;SDS011;42191;47.562;9.686;2023-06-24T11:07:23;29.48;;;27.60;;
56285;SDS011;42191;47.562;9.686;2023-06-24T11:09:54;29.52;;;27.73;;
56285;SDS011;42191;47.562;9.686;2023-06-24T11:12:26;30.90;;;28.98;;
56285;SDS011;42191;47.562;9.686;2023-06-24T11:15:03;29.85;;;27.95;;
56285;SDS011;42191;47.562;9.686;2023-06-24T11:17:31;30.08;;;28.17;;
56285;SDS011;42191;47.562;9.686;2023-06-24T11:19:59;30.52;;;28.58;;
56285;SDS011;42191;47.562;9.686;2023-06-24T11:22:26;29.25;;;27.45;;
56285;SDS011;42191;47.562;9.686;2023-06-24T11:24:53;29.67;;;27.83;;
56285;SDS011;42191;47.562;9.686;2023-06-24T11:27:28;29.63;;;27.83;;
56285;SDS011;42191;47.562;9.686;2023-06-24T11:29:55;36.22;;;33.65;;
56285;SDS011;42191;47.562;9.686;2023-06-24T11:32:25;32.55;;;30.42;;
56285;SDS011;42191;47.562;9.686;2023-06-24T11:35:04;31.58;;;29.60;;
56285;SDS011;42191;47.562;9.686;2023-06-24T11:37:32;29.63;;;27.58;;
56285;SDS011;42191;47.562;9.686;2023-06-24T11:40:05;40.40;;;37.30;;
56285;SDS011;42191;47.562;9.686;2023-06-24T11:42:35;34.33;;;31.92;;
56285;SDS011;42191;47.562;9.686;2023-06-24T11:45:02;45.63;;;41.42;;
56285;SDS011;42191;47.562;9.686;2023-06-24T11:47:33;33.25;;;30.95;;
56285;SDS011;42191;47.562;9.686;2023-06-24T11:50:00;33.60;;;31.05;;
56285;SDS011;42191;47.562;9.686;2023-06-24T11:52:47;33.92;;;31.50;;
56285;SDS011;42191;47.562;9.686;2023-06-24T11:55:18;31.25;;;29.30;;
56285;SDS011;42191;47.562;9.686;2023-06-24T11:57:58;29.92;;;27.98;;
56285;SDS011;42191;47.562;9.686;2023-06-24T12:00:27;30.13;;;28.23;;
56285;SDS011;42191;47.562;9.686;2023-06-24T12:03:01;29.60;;;27.80;;
56285;SDS011;42191;47.562;9.686;2023-06-24T12:05:30;29.88;;;28.00;;
56285;SDS011;42191;47.562;9.686;2023-06-24T12:08:05;29.27;;;27.38;;
56285;SDS011;42191;47.562;9.686;2023-06-24T12:10:32;29.75;;;27.67;;
56285;SDS011;42191;47.562;9.686;2023-06-24T12:12:59;30.42;;;28.42;;
56285;SDS011;42191;47.562;9.686;2023-06-24T12:15:26;30.63;;;28.73;;
56285;SDS011;42191;47.562;9.686;2023-06-24T12:17:53;29.27;;;27.45;;
56285;SDS011;42191;47.562;9.686;2023-06-24T12:20:20;29.77;;;27.98;;
56285;SDS011;42191;47.562;9.686;2023-06-24T12:22:47;30.30;;;28.40;;
56285;SDS011;42191;47.562;9.686;2023-06-24T12:25:13;30.23;;;28.33;;
56285;SDS011;42191;47.562;9.686;2023-06-24T12:27:41;30.17;;;28.17;;
56285;SDS011;42191;47.562;9.686;2023-06-24T12:30:08;29.77;;;27.88;;
56285;SDS011;42191;47.562;9.686;2023-06-24T12:32:35;29.85;;;27.95;;
56285;SDS011;42191;47.562;9.686;2023-06-24T12:35:01;41.50;;;38.13;;
56285;SDS011;42191;47.562;9.686;2023-06-24T12:37:31;51.42;;;46.45;;
56285;SDS011;42191;47.562;9.686;2023-06-24T12:39:58;34.45;;;32.05;;
56285;SDS011;42191;47.562;9.686;2023-06-24T12:42:25;29.58;;;27.60;;
56285;SDS011;42191;47.562;9.686;2023-06-24T12:44:51;30.15;;;27.88;;
56285;SDS011;42191;47.562;9.686;2023-06-24T12:47:18;31.17;;;29.13;;
56285;SDS011;42191;47.562;9.686;2023-06-24T12:49:44;31.38;;;29.25;;
56285;SDS011;42191;47.562;9.686;2023-06-24T12:52:11;29.95;;;28.05;;
56285;SDS011;42191;47.562;9.686;2023-06-24T12:54:38;31.27;;;29.30;;
56285;SDS011;42191;47.562;9.686;2023-06-24T12:57:04;29.63;;;27.52;;
56285;SDS011;42191;47.562;9.686;2023-06-24T12:59:31;29.77;;;27.90;;
56285;SDS011;42191;47.562;9.686;2023-06-24T13:01:57;29.67;;;27.77;;
56285;SDS011;42191;47.562;9.686;2023-06-24T13:04:23;29.35;;;27.50;;
56285;SDS011;42191;47.562;9.686;2023-06-24T13:06:50;28.40;;;26.60;;
56285;SDS011;42191;47.562;9.686;2023-06-24T13:09:17;28.02;;;26.23;;
56285;SDS011;42191;47.562;9.686;2023-06-24T13:11:43;26.73;;;25.02;;
56285;SDS011;42191;47.562;9.686;2023-06-24T13:14:10;26.80;;;25.00;;
56285;SDS011;42191;47.562;9.686;2023-06-24T13:16:36;25.08;;;23.55;;
56285;SDS011;42191;47.562;9.686;2023-06-24T13:19:02;25.38;;;23.77;;
56285;SDS011;42191;47.562;9.686;2023-06-24T13:21:28;24.23;;;22.73;;
56285;SDS011;42191;47.562;9.686;2023-06-24T13:23:55;24.05;;;22.55;;
56285;SDS011;42191;47.562;9.686;2023-06-24T13:26:21;23.35;;;21.90;;
56285;SDS011;42191;47.562;9.686;2023-06-24T13:28:47;23.60;;;22.10;;
56285;SDS011;42191;47.562;9.686;2023-06-24T13:31:14;22.70;;;21.30;;
56285;SDS011;42191;47.562;9.686;2023-06-24T13:33:40;23.13;;;21.73;;
56285;SDS011;42191;47.562;9.686;2023-06-24T13:36:07;22.67;;;21.27;;
56285;SDS011;42191;47.562;9.686;2023-06-24T13:41:04;24.98;;;23.38;;
56285;SDS011;42191;47.562;9.686;2023-06-24T13:43:30;23.95;;;22.27;;
56285;SDS011;42191;47.562;9.686;2023-06-24T13:45:56;23.52;;;21.98;;
56285;SDS011;42191;47.562;9.686;2023-06-24T13:48:23;70.18;;;56.38;;
56285;SDS011;42191;47.562;9.686;2023-06-24T13:50:49;52.17;;;46.72;;
56285;SDS011;42191;47.562;9.686;2023-06-24T13:53:15;27.50;;;25.50;;
56285;SDS011;42191;47.562;9.686;2023-06-24T13:55:41;24.42;;;22.73;;
56285;SDS011;42191;47.562;9.686;2023-06-24T13:58:07;23.35;;;21.95;;
56285;SDS011;42191;47.562;9.686;2023-06-24T14:00:33;22.58;;;21.17;;
56285;SDS011;42191;47.562;9.686;2023-06-24T14:02:59;22.23;;;20.90;;
56285;SDS011;42191;47.562;9.686;2023-06-24T14:05:25;22.08;;;20.67;;
56285;SDS011;42191;47.562;9.686;2023-06-24T14:07:51;22.80;;;21.30;;
56285;SDS011;42191;47.562;9.686;2023-06-24T14:10:18;22.35;;;20.85;;
56285;SDS011;42191;47.562;9.686;2023-06-24T14:12:44;21.70;;;20.40;;
56285;SDS011;42191;47.562;9.686;2023-06-24T14:15:10;21.17;;;19.88;;
56285;SDS011;42191;47.562;9.686;2023-06-24T14:17:36;22.48;;;21.08;;
56285;SDS011;42191;47.562;9.686;2023-06-24T14:20:02;21.75;;;20.35;;
56285;SDS011;42191;47.562;9.686;2023-06-24T14:22:28;21.88;;;20.52;;
56285;SDS011;42191;47.562;9.686;2023-06-24T14:24:55;21.95;;;20.55;;
56285;SDS011;42191;47.562;9.686;2023-06-24T14:27:21;22.02;;;20.73;;
56285;SDS011;42191;47.562;9.686;2023-06-24T14:29:47;21.55;;;20.25;;
56285;SDS011;42191;47.562;9.686;2023-06-24T14:32:13;20.58;;;19.30;;
56285;SDS011;42191;47.562;9.686;2023-06-24T14:34:39;22.45;;;21.05;;
56285;SDS011;42191;47.562;9.686;2023-06-24T14:37:05;21.65;;;20.35;;
56285;SDS011;42191;47.562;9.686;2023-06-24T14:39:31;23.00;;;21.60;;
56285;SDS011;42191;47.562;9.686;2023-06-24T14:41:57;21.85;;;20.52;;
56285;SDS011;42191;47.562;9.686;2023-06-24T14:44:23;22.45;;;21.05;;
56285;SDS011;42191;47.562;9.686;2023-06-24T14:46:50;22.75;;;21.35;;
56285;SDS011;42191;47.562;9.686;2023-06-24T14:49:16;23.25;;;21.75;;
56285;SDS011;42191;47.562;9.686;2023-06-24T14:51:42;22.75;;;21.35;;
56285;SDS011;42191;47.562;9.686;2023-06-24T14:54:09;22.90;;;21.48;;
56285;SDS011;42191;47.562;9.686;2023-06-24T14:56:35;22.92;;;21.52;;
56285;SDS011;42191;47.562;9.686;2023-06-24T14:59:01;23.35;;;21.88;;